Weather Underground® Station Historical Data


Station Historical Data For Bruceton, TN. (K3JAE's Weather Station - KTNBRUCE2)
Daily Summary for:  January 1, 2018 Units:  English    Metric   Both
« Previous Day
Next Day »
Daily Weekly Monthly Yearly Custom
  High: Low: Average:
Temperature: 20.9 °F 6.5 °F 12.5 °F
Dew Point: 5.9 °F -1.4 °F 2.2 °F
Humidity: 82% 45% 64%
Wind Speed: 15.0mph 1.0mph 5.3mph
Wind Gust: 15.0mph - -
Wind- - SSE
Pressure: 30.86 in 30.69 in -
Precipitation: 0.00 in    
Historical Graphs
 
 
Tabular Data for:  January 1, 2018
Time Temperature Dew Point Pressure Wind Wind Speed Wind Gust Humidity Rainfall Rate (Hourly) solar Conditions
00:02 12.4 °F 4.5 °F 30.69 in North 4.6 mph 4.6 mph 70% 0.00 in 0.0 W/m2 CLR
00:03 12.3 °F 4.4 °F 30.69 in NW 4.0 mph 4.2 mph 70% 0.00 in 0.0 W/m2 CLR
00:08 12.3 °F 4.4 °F 30.69 in NW 9.2 mph 9.2 mph 70% 0.00 in 0.0 W/m2 CLR
00:09 12.3 °F 4.4 °F 30.69 in NNE 4.6 mph 4.6 mph 70% 0.00 in 0.0 W/m2 CLR
00:13 12.3 °F 4.7 °F 30.69 in NNW 9.2 mph 9.2 mph 71% 0.00 in 0.0 W/m2 CLR
00:18 12.2 °F 4.6 °F 30.69 in North 6.9 mph 6.9 mph 71% 0.00 in 0.0 W/m2 CLR
00:19 12.2 °F 4.6 °F 30.69 in North 4.0 mph 4.1 mph 71% 0.00 in 0.0 W/m2 CLR
00:24 12.2 °F 4.6 °F 30.69 in NW 9.2 mph 9.2 mph 71% 0.00 in 0.0 W/m2 CLR
00:25 12.2 °F 4.6 °F 30.69 in NNE 8.0 mph 8.0 mph 71% 0.00 in 0.0 W/m2 CLR
00:30 12.2 °F 4.6 °F 30.69 in NW 4.6 mph 4.6 mph 71% 0.00 in 0.0 W/m2 CLR
00:32 12.2 °F 4.6 °F 30.69 in NNW 8.1 mph 8.1 mph 71% 0.00 in 0.0 W/m2 CLR
00:37 12.1 °F 4.5 °F 30.70 in North 3.5 mph 3.5 mph 71% 0.00 in 0.0 W/m2 CLR
00:38 12.1 °F 4.5 °F 30.70 in NNE 3.5 mph 3.5 mph 71% 0.00 in 0.0 W/m2 CLR
00:43 12.1 °F 4.8 °F 30.70 in NW 4.6 mph 4.6 mph 72% 0.00 in 0.0 W/m2 CLR
00:44 12.1 °F 4.8 °F 30.70 in NNW 4.6 mph 4.6 mph 72% 0.00 in 0.0 W/m2 CLR
00:48 12.1 °F 4.8 °F 30.70 in NNW 6.0 mph 6.0 mph 72% 0.00 in 0.0 W/m2 CLR
00:50 12.1 °F 4.5 °F 30.70 in North 4.6 mph 4.6 mph 71% 0.00 in 0.0 W/m2 CLR
00:54 12.0 °F 4.4 °F 30.70 in ENE 4.6 mph 4.6 mph 71% 0.00 in 0.0 W/m2 CLR
00:59 12.0 °F 4.7 °F 30.70 in NNW 4.0 mph 4.0 mph 72% 0.00 in 0.0 W/m2 CLR
01:03 11.9 °F 4.6 °F 30.70 in North 3.5 mph 3.5 mph 72% 0.00 in 0.0 W/m2 CLR
01:08 11.9 °F 4.6 °F 30.70 in NNW 8.1 mph 8.1 mph 72% 0.00 in 0.0 W/m2 CLR
01:09 11.8 °F 4.5 °F 30.70 in NNE 6.9 mph 6.9 mph 72% 0.00 in 0.0 W/m2 CLR
01:14 11.8 °F 4.5 °F 30.70 in North 9.2 mph 9.2 mph 72% 0.00 in 0.0 W/m2 CLR
01:19 11.7 °F 4.4 °F 30.71 in North 9.2 mph 9.2 mph 72% 0.00 in 0.0 W/m2 CLR
01:20 11.7 °F 4.4 °F 30.71 in NW 4.0 mph 4.0 mph 72% 0.00 in 0.0 W/m2 CLR
01:24 11.6 °F 4.3 °F 30.71 in NNE 10.4 mph 10.4 mph 72% 0.00 in 0.0 W/m2 CLR
01:28 11.6 °F 4.3 °F 30.71 in NNE 3.5 mph 3.5 mph 72% 0.00 in 0.0 W/m2 CLR
01:32 11.5 °F 4.2 °F 30.71 in NNW 9.2 mph 9.2 mph 72% 0.00 in 0.0 W/m2 CLR
01:34 11.5 °F 4.2 °F 30.71 in NW 8.1 mph 8.1 mph 72% 0.00 in 0.0 W/m2 CLR
01:39 11.4 °F 4.1 °F 30.72 in North 9.2 mph 9.2 mph 72% 0.00 in 0.0 W/m2 CLR
01:44 11.3 °F 4.3 °F 30.72 in North 6.9 mph 6.9 mph 73% 0.00 in 0.0 W/m2 CLR
01:45 11.3 °F 4.3 °F 30.72 in North 3.5 mph 3.5 mph 73% 0.00 in 0.0 W/m2 CLR
01:50 11.2 °F 4.2 °F 30.72 in NNW 5.8 mph 5.8 mph 73% 0.00 in 0.0 W/m2 CLR
01:55 11.1 °F 4.1 °F 30.72 in NNE 5.8 mph 5.8 mph 73% 0.00 in 0.0 W/m2 CLR
01:58 10.9 °F 3.6 °F 30.72 in North 10.4 mph 10.4 mph 72% 0.00 in 0.0 W/m2 CLR
01:59 10.9 °F 3.6 °F 30.72 in North 10.4 mph 10.4 mph 72% 0.00 in 0.0 W/m2 CLR
02:04 10.8 °F 3.8 °F 30.72 in WNW 10.4 mph 10.4 mph 73% 0.00 in 0.0 W/m2 CLR
02:09 10.7 °F 4.0 °F 30.73 in North 8.1 mph 8.1 mph 74% 0.00 in 0.0 W/m2 CLR
02:14 10.6 °F 3.9 °F 30.72 in NNE 9.2 mph 9.2 mph 74% 0.00 in 0.0 W/m2 CLR
02:15 10.6 °F 3.9 °F 30.73 in NNE 9.2 mph 9.2 mph 74% 0.00 in 0.0 W/m2 CLR
02:20 10.4 °F 3.8 °F 30.73 in NNW 8.1 mph 8.1 mph 74% 0.00 in 0.0 W/m2 CLR
02:25 10.2 °F 3.8 °F 30.73 in NNE 11.5 mph 11.5 mph 75% 0.00 in 0.0 W/m2 CLR
02:27 10.2 °F 3.8 °F 30.73 in NNE 8.1 mph 8.1 mph 75% 0.00 in 0.0 W/m2 CLR
02:32 10.1 °F 4.0 °F 30.73 in NNE 5.8 mph 5.8 mph 76% 0.00 in 0.0 W/m2 CLR
02:38 10.0 °F 3.9 °F 30.73 in NNE 3.5 mph 3.5 mph 76% 0.00 in 0.0 W/m2 CLR
02:42 9.9 °F 3.8 °F 30.73 in NE 5.8 mph 5.8 mph 76% 0.00 in 0.0 W/m2 CLR
02:43 9.9 °F 3.8 °F 30.73 in NNE 3.5 mph 3.5 mph 76% 0.00 in 0.0 W/m2 CLR
02:48 9.9 °F 3.8 °F 30.73 in NNE 9.0 mph 9.0 mph 76% 0.00 in 0.0 W/m2 CLR
02:49 9.8 °F 3.7 °F 30.74 in North 15.0 mph 15.0 mph 76% 0.00 in 0.0 W/m2 CLR
02:54 9.7 °F 3.4 °F 30.74 in NNE 10.0 mph 10.0 mph 75% 0.00 in 0.0 W/m2 CLR
02:59 9.4 °F 3.1 °F 30.73 in NE 11.5 mph 11.5 mph 75% 0.00 in 0.0 W/m2 CLR
03:02 9.3 °F 3.0 °F 30.73 in NNE 8.1 mph 8.1 mph 75% 0.00 in 0.0 W/m2 CLR
03:07 9.1 °F 2.8 °F 30.73 in NNW 8.1 mph 8.1 mph 75% 0.00 in 0.0 W/m2 CLR
03:12 9.0 °F 3.0 °F 30.73 in NNW 5.0 mph 5.0 mph 76% 0.00 in 0.0 W/m2 CLR
03:13 8.9 °F 2.9 °F 30.73 in NNW 10.4 mph 10.4 mph 76% 0.00 in 0.0 W/m2 CLR
03:18 8.8 °F 2.8 °F 30.74 in NNE 10.0 mph 10.0 mph 76% 0.00 in 0.0 W/m2 CLR
03:19 8.8 °F 2.8 °F 30.74 in NE 10.4 mph 10.4 mph 76% 0.00 in 0.0 W/m2 CLR
03:24 8.7 °F 2.7 °F 30.74 in WNW 8.1 mph 8.1 mph 76% 0.00 in 0.0 W/m2 CLR
03:25 8.7 °F 2.7 °F 30.74 in WNW 3.5 mph 3.5 mph 76% 0.00 in 0.0 W/m2 CLR
03:26 8.7 °F 2.7 °F 30.74 in NW 4.0 mph 4.0 mph 76% 0.00 in 0.0 W/m2 CLR
03:30 8.7 °F 3.0 °F 30.74 in NNW 8.1 mph 8.1 mph 77% 0.00 in 0.0 W/m2 CLR
03:35 8.6 °F 2.9 °F 30.75 in North 3.5 mph 3.5 mph 77% 0.00 in 0.0 W/m2 BKN
03:40 8.5 °F 2.8 °F 30.74 in North 4.0 mph 4.0 mph 77% 0.00 in 0.0 W/m2 BKN
03:41 8.5 °F 2.8 °F 30.75 in North 4.0 mph 4.0 mph 77% 0.00 in 0.0 W/m2 BKN
03:42 8.5 °F 2.8 °F 30.75 in NNE 7.0 mph 7.0 mph 77% 0.00 in 0.0 W/m2 BKN
03:47 8.4 °F 2.7 °F 30.75 in NNW 9.2 mph 9.2 mph 77% 0.00 in 0.0 W/m2 BKN
03:49 8.3 °F 2.6 °F 30.74 in NNW 4.6 mph 4.6 mph 77% 0.00 in 0.0 W/m2 BKN
03:54 8.3 °F 2.6 °F 30.74 in NNW 5.8 mph 5.8 mph 77% 0.00 in 0.0 W/m2 BKN
03:56 8.2 °F 2.5 °F 30.74 in North 4.0 mph 4.0 mph 77% 0.00 in 0.0 W/m2 BKN
04:01 8.2 °F 2.5 °F 30.74 in NNE 5.0 mph 5.0 mph 77% 0.00 in 0.0 W/m2 OVC
04:02 8.1 °F 2.7 °F 30.74 in North 10.4 mph 10.4 mph 78% 0.00 in 0.0 W/m2 OVC
04:04 8.1 °F 2.4 °F 30.74 in NNW 3.5 mph 3.5 mph 77% 0.00 in 0.0 W/m2 OVC
04:07 8.1 °F 2.7 °F 30.74 in NNE 11.5 mph 11.5 mph 78% 0.00 in 0.0 W/m2 OVC
04:12 7.9 °F 2.5 °F 30.75 in NNW 4.6 mph 4.6 mph 78% 0.00 in 0.0 W/m2 OVC
04:13 7.9 °F 2.5 °F 30.75 in NNE 7.0 mph 7.0 mph 78% 0.00 in 0.0 W/m2 OVC
04:18 7.8 °F 2.4 °F 30.75 in NNE 10.4 mph 10.4 mph 78% 0.00 in 0.0 W/m2 OVC
04:22 7.8 °F 2.4 °F 30.75 in NNW 8.1 mph 8.1 mph 78% 0.00 in 0.0 W/m2 OVC
04:24 7.8 °F 2.4 °F 30.76 in North 8.1 mph 8.1 mph 78% 0.00 in 0.0 W/m2 OVC
04:29 7.8 °F 2.4 °F 30.76 in NW 8.1 mph 8.1 mph 78% 0.00 in 0.0 W/m2 OVC
04:30 7.8 °F 2.4 °F 30.76 in NW 6.9 mph 6.9 mph 78% 0.00 in 0.0 W/m2 OVC
04:35 7.8 °F 2.4 °F 30.76 in NW 9.2 mph 9.2 mph 78% 0.00 in 0.0 W/m2 OVC
04:40 7.7 °F 2.3 °F 30.76 in NW 3.5 mph 3.5 mph 78% 0.00 in 0.0 W/m2 OVC
04:41 7.7 °F 2.5 °F 30.76 in NW 3.5 mph 3.5 mph 79% 0.00 in 0.0 W/m2 OVC
04:46 7.8 °F 2.6 °F 30.77 in NW 4.6 mph 4.6 mph 79% 0.00 in 0.0 W/m2 FEW
04:51 7.7 °F 2.3 °F 30.77 in NNE 5.8 mph 5.8 mph 78% 0.00 in 0.0 W/m2 FEW
04:56 7.7 °F 2.5 °F 30.77 in NW 3.5 mph 3.5 mph 79% 0.00 in 0.0 W/m2 FEW
04:58 7.7 °F 2.5 °F 30.77 in NNW 4.6 mph 4.6 mph 79% 0.00 in 0.0 W/m2 FEW
05:02 7.6 °F 2.4 °F 30.77 in North 5.0 mph 5.0 mph 79% 0.00 in 0.0 W/m2 SCT
05:06 7.5 °F 2.3 °F 30.77 in NNE 5.0 mph 5.0 mph 79% 0.00 in 0.0 W/m2 SCT
05:11 7.5 °F 2.3 °F 30.78 in North 3.5 mph 3.5 mph 79% 0.00 in 0.0 W/m2 SCT
05:16 7.5 °F 2.3 °F 30.78 in NW 4.6 mph 4.6 mph 79% 0.00 in 0.0 W/m2 SCT
05:17 7.5 °F 2.3 °F 30.78 in NW 4.6 mph 4.6 mph 79% 0.00 in 0.0 W/m2 SCT
05:22 7.3 °F 2.2 °F 30.78 in NE 3.5 mph 3.5 mph 79% 0.00 in 0.0 W/m2 SCT
05:23 7.3 °F 2.2 °F 30.78 in NNE 3.5 mph 3.5 mph 79% 0.00 in 0.0 W/m2 SCT
05:28 7.2 °F 2.3 °F 30.78 in WNW 8.1 mph 8.1 mph 80% 0.00 in 0.0 W/m2 SCT
05:29 7.2 °F 2.1 °F 30.78 in North 8.1 mph 8.1 mph 79% 0.00 in 0.0 W/m2 SCT
05:34 7.1 °F 2.2 °F 30.78 in NW 3.5 mph 3.5 mph 80% 0.00 in 0.0 W/m2 SCT
05:39 7.1 °F 2.2 °F 30.78 in NW 8.1 mph 8.1 mph 80% 0.00 in 0.0 W/m2 SCT
05:44 7.0 °F 2.1 °F 30.79 in North 3.5 mph 3.5 mph 80% 0.00 in 0.0 W/m2 SCT
05:45 6.9 °F 2.0 °F 30.79 in North 11.5 mph 11.5 mph 80% 0.00 in 0.0 W/m2 SCT
05:50 6.9 °F 2.0 °F 30.79 in NW 3.5 mph 3.5 mph 80% 0.00 in 0.0 W/m2 SCT
05:53 6.9 °F 2.0 °F 30.79 in NW 3.5 mph 3.5 mph 80% 0.00 in 0.0 W/m2 SCT
05:57 6.9 °F 2.0 °F 30.79 in NNE 4.6 mph 4.6 mph 80% 0.00 in 0.0 W/m2 SCT
06:00 6.8 °F 1.9 °F 30.79 in NW 5.8 mph 5.8 mph 80% 0.00 in 0.0 W/m2 FEW
06:02 6.7 °F 1.8 °F 30.79 in NNE 5.0 mph 5.0 mph 80% 0.00 in 0.0 W/m2 FEW
06:06 6.6 °F 1.7 °F 30.79 in NNE 3.5 mph 3.5 mph 80% 0.00 in 0.0 W/m2 FEW
06:11 6.5 °F 1.6 °F 30.79 in North 8.1 mph 8.1 mph 80% 0.00 in 0.0 W/m2 FEW
06:16 6.5 °F 1.6 °F 30.79 in NNE 3.5 mph 3.5 mph 80% 0.00 in 0.0 W/m2 FEW
06:21 6.5 °F 1.6 °F 30.80 in NNE 11.5 mph 11.5 mph 80% 0.00 in 0.0 W/m2 FEW
06:22 6.5 °F 1.9 °F 30.80 in NNE 3.0 mph 3.0 mph 81% 0.00 in 0.0 W/m2 FEW
06:27 6.5 °F 1.9 °F 30.80 in NW 6.9 mph 6.9 mph 81% 0.00 in 0.0 W/m2 FEW
06:32 6.5 °F 1.9 °F 30.80 in NNE 9.2 mph 9.2 mph 81% 0.00 in 0.0 W/m2 FEW
06:33 6.5 °F 1.6 °F 30.80 in NNE 9.2 mph 9.2 mph 80% 0.00 in 0.0 W/m2 FEW
06:38 6.5 °F 1.9 °F 30.80 in NNE 3.5 mph 3.5 mph 81% 0.00 in 0.0 W/m2 FEW
06:41 6.5 °F 1.9 °F 30.81 in NNE 3.5 mph 3.5 mph 81% 0.00 in 0.0 W/m2 FEW
06:46 6.6 °F 2.0 °F 30.81 in NNE 5.8 mph 5.8 mph 81% 0.00 in 0.0 W/m2 FEW
06:51 6.6 °F 2.0 °F 30.81 in NNE 3.5 mph 3.5 mph 81% 0.00 in 0.0 W/m2 FEW
06:52 6.6 °F 2.0 °F 30.81 in NNW 4.6 mph 4.6 mph 81% 0.00 in 0.0 W/m2 FEW
06:57 6.5 °F 1.9 °F 30.81 in NNE 4.6 mph 4.6 mph 81% 0.00 in 0.0 W/m2 FEW
07:02 6.5 °F 1.9 °F 30.81 in NNW 8.1 mph 8.1 mph 81% 0.00 in 0.0 W/m2 CLR
07:04 6.6 °F 2.0 °F 30.81 in NNE 5.8 mph 5.8 mph 81% 0.00 in 0.0 W/m2 CLR
07:05 6.5 °F 1.9 °F 30.82 in NNE 3.5 mph 3.5 mph 81% 0.00 in 0.0 W/m2 CLR
07:10 6.6 °F 2.0 °F 30.81 in NNE 3.5 mph 3.5 mph 81% 0.00 in 0.0 W/m2 CLR
07:15 6.6 °F 2.0 °F 30.82 in North 4.6 mph 4.6 mph 81% 0.00 in 7.0 W/m2 CLR
07:16 6.7 °F 2.1 °F 30.82 in North 4.6 mph 4.6 mph 81% 0.00 in 7.0 W/m2 CLR
07:21 6.7 °F 2.1 °F 30.82 in NNE 4.6 mph 4.6 mph 81% 0.00 in 11.0 W/m2 CLR
07:26 6.8 °F 2.2 °F 30.81 in NNE 8.1 mph 8.1 mph 81% 0.00 in 18.0 W/m2 CLR
07:31 6.9 °F 2.3 °F 30.82 in NW 3.5 mph 3.5 mph 81% 0.00 in 21.0 W/m2 CLR
07:33 6.9 °F 2.6 °F 30.82 in NNE 4.6 mph 4.6 mph 82% 0.00 in 23.0 W/m2 CLR
07:38 7.0 °F 2.4 °F 30.82 in NW 4.6 mph 4.6 mph 81% 0.00 in 28.0 W/m2 CLR
07:42 7.0 °F 2.4 °F 30.82 in North 3.5 mph 3.5 mph 81% 0.00 in 32.0 W/m2 CLR
07:43 7.0 °F 2.4 °F 30.82 in NNW 3.5 mph 3.5 mph 81% 0.00 in 33.0 W/m2 CLR
07:48 7.1 °F 2.5 °F 30.83 in NW 5.8 mph 5.8 mph 81% 0.00 in 37.0 W/m2 CLR
07:49 7.1 °F 2.5 °F 30.82 in NW 3.5 mph 3.5 mph 81% 0.00 in 37.0 W/m2 CLR
07:50 7.2 °F 2.6 °F 30.83 in NNW 3.0 mph 3.0 mph 81% 0.00 in 37.0 W/m2 CLR
07:55 7.2 °F 2.6 °F 30.82 in NW 5.8 mph 5.8 mph 81% 0.00 in 39.0 W/m2 CLR
07:56 7.2 °F 2.6 °F 30.82 in NW 4.6 mph 4.6 mph 81% 0.00 in 44.0 W/m2 CLR
08:01 7.3 °F 2.7 °F 30.82 in WNW 8.1 mph 8.1 mph 81% 0.00 in 49.0 W/m2 SCT
08:04 7.3 °F 3.0 °F 30.82 in NW 3.5 mph 3.5 mph 82% 0.00 in 51.0 W/m2 SCT
08:07 7.5 °F 3.2 °F 30.83 in North 8.1 mph 8.1 mph 82% 0.00 in 51.0 W/m2 SCT
08:10 7.5 °F 2.9 °F 30.83 in NNE 4.6 mph 4.6 mph 81% 0.00 in 58.0 W/m2 SCT
08:15 7.5 °F 2.9 °F 30.83 in NNW 5.8 mph 5.8 mph 81% 0.00 in 72.0 W/m2 BKN
08:18 7.6 °F 3.0 °F 30.83 in NE 3.5 mph 3.5 mph 81% 0.00 in 74.0 W/m2 BKN
08:23 7.6 °F 3.0 °F 30.83 in NNE 4.6 mph 4.6 mph 81% 0.00 in 97.0 W/m2 BKN
08:25 7.7 °F 3.1 °F 30.83 in NW 6.9 mph 6.9 mph 81% 0.00 in 97.0 W/m2 BKN
08:30 7.8 °F 3.2 °F 30.83 in NNE 8.1 mph 8.1 mph 81% 0.00 in 100.0 W/m2 BKN
08:33 7.9 °F 3.0 °F 30.83 in NNE 9.2 mph 9.2 mph 80% 0.00 in 102.0 W/m2 BKN
08:37 8.0 °F 3.4 °F 30.83 in NNW 8.1 mph 8.1 mph 81% 0.00 in 128.0 W/m2 BKN
08:42 8.1 °F 3.2 °F 30.83 in NNE 8.1 mph 8.1 mph 80% 0.00 in 130.0 W/m2 SCT
08:43 8.1 °F 3.2 °F 30.83 in NNE 8.1 mph 8.1 mph 80% 0.00 in 114.0 W/m2 SCT
08:48 8.4 °F 3.5 °F 30.84 in North 4.6 mph 4.6 mph 80% 0.00 in 100.0 W/m2 SCT
08:53 8.5 °F 3.3 °F 30.84 in North 10.0 mph 10.0 mph 79% 0.00 in 100.0 W/m2 SCT
08:55 8.4 °F 3.2 °F 30.84 in NNE 11.5 mph 11.5 mph 79% 0.00 in 77.0 W/m2 SCT
09:00 8.4 °F 3.2 °F 30.84 in NNE 8.1 mph 8.1 mph 79% 0.00 in 109.0 W/m2 CLR
09:01 8.5 °F 3.3 °F 30.84 in NNE 5.8 mph 5.8 mph 79% 0.00 in 202.0 W/m2 CLR
09:06 8.7 °F 3.5 °F 30.84 in NNE 3.5 mph 3.5 mph 79% 0.00 in 69.0 W/m2 CLR
09:08 8.8 °F 3.6 °F 30.84 in NNE 3.5 mph 3.5 mph 79% 0.00 in 72.0 W/m2 CLR
09:09 8.9 °F 3.7 °F 30.84 in North 8.1 mph 8.1 mph 79% 0.00 in 72.0 W/m2 CLR
09:14 8.9 °F 3.4 °F 30.84 in North 5.8 mph 5.8 mph 78% 0.00 in 53.0 W/m2 CLR
09:19 8.8 °F 3.3 °F 30.84 in NNE 9.2 mph 9.2 mph 78% 0.00 in 98.0 W/m2 CLR
09:20 8.8 °F 3.3 °F 30.84 in NW 9.2 mph 9.2 mph 78% 0.00 in 49.0 W/m2 CLR
09:25 9.2 °F 3.7 °F 30.85 in NW 6.0 mph 6.0 mph 78% 0.00 in 221.0 W/m2 CLR
09:26 9.2 °F 3.7 °F 30.85 in NNE 5.8 mph 5.8 mph 78% 0.00 in 156.0 W/m2 CLR
09:31 9.8 °F 4.0 °F 30.85 in NNE 6.9 mph 6.9 mph 77% 0.00 in 255.0 W/m2 CLR
09:36 10.4 °F 4.3 °F 30.85 in NNW 4.6 mph 4.6 mph 76% 0.00 in 137.0 W/m2 CLR
09:37 10.5 °F 4.4 °F 30.85 in NNW 4.6 mph 4.6 mph 76% 0.00 in 104.0 W/m2 CLR
09:42 10.7 °F 4.3 °F 30.85 in WNW 4.6 mph 4.6 mph 75% 0.00 in 200.0 W/m2 CLR
09:43 10.9 °F 4.5 °F 30.85 in NNW 6.9 mph 6.9 mph 75% 0.00 in 227.0 W/m2 CLR
09:46 11.0 °F 4.3 °F 30.85 in ENE 9.2 mph 9.2 mph 74% 0.00 in 236.0 W/m2 CLR
09:50 10.9 °F 3.9 °F 30.85 in NNE 10.4 mph 10.4 mph 73% 0.00 in 287.0 W/m2 CLR
09:52 10.9 °F 3.9 °F 30.86 in WNW 8.1 mph 8.1 mph 73% 0.00 in 185.0 W/m2 CLR
09:57 11.5 °F 4.5 °F 30.86 in ENE 5.8 mph 5.8 mph 73% 0.00 in 299.0 W/m2 CLR
09:59 11.6 °F 4.3 °F 30.86 in NE 9.2 mph 9.2 mph 72% 0.00 in 244.0 W/m2 CLR
10:04 11.8 °F 4.5 °F 30.86 in NNE 8.0 mph 8.0 mph 72% 0.00 in 292.0 W/m2 CLR
10:09 12.2 °F 4.6 °F 30.86 in North 4.6 mph 4.6 mph 71% 0.00 in 309.0 W/m2 CLR
10:13 12.3 °F 4.4 °F 30.86 in NNE 8.1 mph 8.1 mph 70% 0.00 in 302.0 W/m2 CLR
10:14 12.3 °F 4.4 °F 30.86 in North 4.6 mph 4.6 mph 70% 0.00 in 294.0 W/m2 CLR
10:19 12.7 °F 4.8 °F 30.86 in NE 8.1 mph 8.1 mph 70% 0.00 in 359.0 W/m2 CLR
10:20 12.7 °F 4.8 °F 30.86 in NNE 8.1 mph 8.1 mph 70% 0.00 in 359.0 W/m2 CLR
10:25 12.9 °F 4.6 °F 30.86 in NE 6.9 mph 6.9 mph 69% 0.00 in 236.0 W/m2 CLR
10:26 12.8 °F 4.2 °F 30.86 in ENE 6.9 mph 6.9 mph 68% 0.00 in 265.0 W/m2 CLR
10:30 13.1 °F 4.8 °F 30.86 in NW 5.0 mph 5.0 mph 69% 0.00 in 385.0 W/m2 CLR
10:31 13.3 °F 5.0 °F 30.86 in NNE 6.9 mph 6.9 mph 69% 0.00 in 401.0 W/m2 CLR
10:36 14.1 °F 5.1 °F 30.86 in NNW 8.1 mph 8.1 mph 67% 0.00 in 306.0 W/m2 CLR
10:41 14.2 °F 4.6 °F 30.85 in NNW 9.2 mph 9.2 mph 65% 0.00 in 171.0 W/m2 CLR
10:42 14.1 °F 4.5 °F 30.85 in ENE 9.2 mph 9.2 mph 65% 0.00 in 204.0 W/m2 CLR
10:47 14.0 °F 4.7 °F 30.85 in NNE 11.5 mph 11.5 mph 66% 0.00 in 332.0 W/m2 CLR
10:52 14.3 °F 4.7 °F 30.85 in North 4.6 mph 4.6 mph 65% 0.00 in 264.0 W/m2 CLR
10:53 14.4 °F 4.8 °F 30.85 in NNW 4.6 mph 4.6 mph 65% 0.00 in 214.0 W/m2 CLR
10:55 14.6 °F 5.0 °F 30.85 in North 8.1 mph 8.1 mph 65% 0.00 in 260.0 W/m2 CLR
11:00 14.5 °F 4.2 °F 30.85 in NNW 5.0 mph 5.0 mph 63% 0.00 in 432.0 W/m2 CLR
11:02 14.7 °F 4.4 °F 30.85 in NNE 4.6 mph 4.6 mph 63% 0.00 in 427.0 W/m2 CLR
11:07 14.8 °F 4.5 °F 30.85 in ENE 9.2 mph 9.2 mph 63% 0.00 in 506.0 W/m2 CLR
11:09 14.7 °F 4.4 °F 30.85 in ENE 8.1 mph 8.1 mph 63% 0.00 in 415.0 W/m2 CLR
11:10 14.7 °F 4.4 °F 30.85 in ENE 6.9 mph 6.9 mph 63% 0.00 in 441.0 W/m2 CLR
11:15 15.2 °F 5.2 °F 30.84 in ENE 3.5 mph 3.5 mph 64% 0.00 in 397.0 W/m2 CLR
11:19 15.8 °F 5.1 °F 30.84 in NW 4.6 mph 4.6 mph 62% 0.00 in 510.0 W/m2 CLR
11:20 15.8 °F 5.1 °F 30.84 in NE 1.0 mph 5.0 mph 62% 0.00 in 510.0 W/m2 CLR
11:25 16.7 °F 5.9 °F 30.84 in ENE 10.4 mph 10.4 mph 62% 0.00 in 520.0 W/m2 CLR
11:30 16.1 °F 4.6 °F 30.83 in NE 3.5 mph 3.5 mph 60% 0.00 in 526.0 W/m2 CLR
11:33 16.2 °F 4.7 °F 30.83 in NE 3.5 mph 3.5 mph 60% 0.00 in 526.0 W/m2 CLR
11:38 16.6 °F 4.7 °F 30.83 in NNE 3.5 mph 3.5 mph 59% 0.00 in 490.0 W/m2 CLR
11:42 17.0 °F 4.7 °F 30.83 in NNE 4.6 mph 4.6 mph 58% 0.00 in 527.0 W/m2 CLR
11:45 17.2 °F 4.6 °F 30.83 in NNE 9.2 mph 9.2 mph 57% 0.00 in 529.0 W/m2 CLR
11:47 17.2 °F 4.6 °F 30.83 in NE 4.6 mph 4.6 mph 57% 0.00 in 527.0 W/m2 CLR
11:50 17.5 °F 4.8 °F 30.83 in NNE 3.5 mph 3.5 mph 57% 0.00 in 527.0 W/m2 CLR
11:55 17.6 °F 4.9 °F 30.83 in NNE 5.8 mph 5.8 mph 57% 0.00 in 527.0 W/m2 CLR
11:57 17.6 °F 4.9 °F 30.82 in NNE 4.6 mph 4.6 mph 57% 0.00 in 531.0 W/m2 CLR
12:02 18.1 °F 5.0 °F 30.82 in WNW 5.0 mph 5.0 mph 56% 0.00 in 527.0 W/m2 CLR
12:03 18.1 °F 5.0 °F 30.82 in NW 4.6 mph 4.6 mph 56% 0.00 in 527.0 W/m2 CLR
12:04 18.2 °F 5.1 °F 30.82 in NNE 5.8 mph 5.8 mph 56% 0.00 in 531.0 W/m2 CLR
12:08 18.2 °F 4.7 °F 30.82 in ENE 8.1 mph 8.1 mph 55% 0.00 in 529.0 W/m2 CLR
12:13 17.6 °F 4.5 °F 30.81 in ENE 4.6 mph 4.6 mph 56% 0.00 in 527.0 W/m2 CLR
12:18 18.1 °F 5.0 °F 30.81 in NNW 6.0 mph 6.0 mph 56% 0.00 in 526.0 W/m2 CLR
12:20 18.3 °F 4.8 °F 30.81 in NW 5.8 mph 5.8 mph 55% 0.00 in 522.0 W/m2 CLR
12:23 18.4 °F 4.9 °F 30.81 in NNE 3.5 mph 3.5 mph 55% 0.00 in 522.0 W/m2 CLR
12:25 18.6 °F 5.1 °F 30.81 in North 9.0 mph 9.0 mph 55% 0.00 in 520.0 W/m2 CLR
12:30 19.2 °F 5.7 °F 30.81 in NW 8.1 mph 8.1 mph 55% 0.00 in 522.0 W/m2 CLR
12:31 19.4 °F 5.4 °F 30.81 in NW 8.1 mph 8.1 mph 54% 0.00 in 522.0 W/m2 CLR
12:32 19.4 °F 5.0 °F 30.80 in WNW 5.8 mph 5.8 mph 53% 0.00 in 522.0 W/m2 CLR
12:37 19.5 °F 5.1 °F 30.80 in NNE 7.0 mph 7.0 mph 53% 0.00 in 515.0 W/m2 CLR
12:39 19.3 °F 4.9 °F 30.80 in ENE 5.0 mph 5.0 mph 53% 0.00 in 513.0 W/m2 CLR
12:42 19.1 °F 4.8 °F 30.80 in ENE 3.5 mph 3.5 mph 53% 0.00 in 513.0 W/m2 CLR
12:46 19.3 °F 5.3 °F 30.80 in NW 6.9 mph 6.9 mph 54% 0.00 in 512.0 W/m2 CLR
12:47 19.4 °F 5.4 °F 30.80 in NW 2.3 mph 2.3 mph 54% 0.00 in 510.0 W/m2 CLR
12:52 19.8 °F 4.6 °F 30.80 in NNE 11.5 mph 11.5 mph 51% 0.00 in 506.0 W/m2 CLR
12:54 19.6 °F 4.4 °F 30.80 in NNE 10.4 mph 10.4 mph 51% 0.00 in 504.0 W/m2 CLR
12:57 19.5 °F 4.7 °F 30.80 in NNE 4.6 mph 4.6 mph 52% 0.00 in 501.0 W/m2 CLR
13:03 19.9 °F 5.1 °F 30.79 in NNW 3.5 mph 3.5 mph 52% 0.00 in 496.0 W/m2 CLR
13:07 20.3 °F 5.0 °F 30.79 in WNW 10.4 mph 10.4 mph 51% 0.00 in 490.0 W/m2 CLR
13:10 20.4 °F 4.7 °F 30.79 in NW 6.9 mph 7.3 mph 50% 0.00 in 487.0 W/m2 CLR
13:15 20.2 °F 4.5 °F 30.79 in NW 6.9 mph 6.9 mph 50% 0.00 in 480.0 W/m2 CLR
13:17 20.2 °F 4.9 °F 30.79 in NW 6.9 mph 6.9 mph 51% 0.00 in 476.0 W/m2 CLR
13:22 20.3 °F 4.6 °F 30.79 in WNW 6.9 mph 6.9 mph 50% 0.00 in 469.0 W/m2 CLR
13:25 20.4 °F 4.2 °F 30.78 in WNW 3.0 mph 3.0 mph 49% 0.00 in 468.0 W/m2 CLR
13:29 20.8 °F 4.6 °F 30.78 in NW 3.5 mph 3.5 mph 49% 0.00 in 462.0 W/m2 CLR
13:34 20.9 °F 4.3 °F 30.78 in NNW 6.0 mph 6.0 mph 48% 0.00 in 455.0 W/m2 CLR
13:35 20.8 °F 4.2 °F 30.78 in NNW 5.8 mph 5.8 mph 48% 0.00 in 455.0 W/m2 CLR
13:39 20.5 °F 3.9 °F 30.78 in North 8.1 mph 8.1 mph 48% 0.00 in 445.0 W/m2 CLR
13:40 20.4 °F 3.8 °F 30.78 in NNW 11.5 mph 11.5 mph 48% 0.00 in 443.0 W/m2 CLR
13:45 20.3 °F 3.7 °F 30.78 in NNE 8.0 mph 8.0 mph 48% 0.00 in 434.0 W/m2 CLR
13:46 20.3 °F 3.7 °F 30.78 in NNE 11.5 mph 11.5 mph 48% 0.00 in 434.0 W/m2 CLR
13:51 19.9 °F 3.8 °F 30.78 in NW 4.6 mph 4.6 mph 49% 0.00 in 425.0 W/m2 CLR
13:53 20.1 °F 4.0 °F 30.78 in WNW 3.5 mph 3.5 mph 49% 0.00 in 422.0 W/m2 CLR
13:56 20.5 °F 3.9 °F 30.78 in NNW 6.9 mph 6.9 mph 48% 0.00 in 417.0 W/m2 CLR
14:01 20.6 °F 3.5 °F 30.78 in North 5.0 mph 5.0 mph 47% 0.00 in 406.0 W/m2 CLR
14:04 20.5 °F 3.0 °F 30.78 in NNW 8.1 mph 8.1 mph 46% 0.00 in 401.0 W/m2 CLR
14:05 20.5 °F 3.0 °F 30.78 in WNW 10.0 mph 10.0 mph 46% 0.00 in 399.0 W/m2 CLR
14:10 20.7 °F 3.6 °F 30.78 in NW 10.4 mph 10.4 mph 47% 0.00 in 390.0 W/m2 CLR
14:13 20.8 °F 3.2 °F 30.78 in NW 8.1 mph 8.1 mph 46% 0.00 in 385.0 W/m2 CLR
14:18 20.7 °F 3.2 °F 30.78 in NW 8.1 mph 8.1 mph 46% 0.00 in 373.0 W/m2 CLR
14:23 20.5 °F 2.5 °F 30.78 in NE 8.1 mph 8.1 mph 45% 0.00 in 360.0 W/m2 CLR
14:25 20.2 °F 2.2 °F 30.78 in NE 4.6 mph 4.6 mph 45% 0.00 in 355.0 W/m2 CLR
14:30 19.7 °F 2.7 °F 30.78 in NE 5.8 mph 5.8 mph 47% 0.00 in 308.0 W/m2 CLR
14:31 19.6 °F 2.6 °F 30.78 in NE 5.8 mph 5.8 mph 47% 0.00 in 308.0 W/m2 CLR
14:34 19.5 °F 2.5 °F 30.78 in NE 3.5 mph 3.5 mph 47% 0.00 in 311.0 W/m2 CLR
14:39 19.7 °F 2.7 °F 30.78 in NW 5.8 mph 5.8 mph 47% 0.00 in 302.0 W/m2 CLR
14:40 19.7 °F 2.7 °F 30.78 in WNW 9.2 mph 9.2 mph 47% 0.00 in 287.0 W/m2 CLR
14:45 20.1 °F 3.1 °F 30.78 in ENE 5.8 mph 5.8 mph 47% 0.00 in 60.0 W/m2 CLR
14:47 19.9 °F 2.4 °F 30.78 in North 8.1 mph 8.1 mph 46% 0.00 in 135.0 W/m2 CLR
14:52 19.4 °F 2.0 °F 30.78 in NNE 10.0 mph 10.0 mph 46% 0.00 in 60.0 W/m2 CLR
14:55 19.2 °F 2.2 °F 30.78 in NNE 8.0 mph 8.0 mph 47% 0.00 in 51.0 W/m2 CLR
15:00 19.0 °F 2.1 °F 30.78 in NNE 3.5 mph 3.5 mph 47% 0.00 in 134.0 W/m2 CLR
15:01 19.0 °F 2.1 °F 30.78 in North 4.6 mph 4.6 mph 47% 0.00 in 54.0 W/m2 CLR
15:06 19.2 °F 2.2 °F 30.78 in NNE 3.5 mph 3.5 mph 47% 0.00 in 74.0 W/m2 CLR
15:08 19.2 °F 2.2 °F 30.78 in NNE 5.0 mph 5.0 mph 47% 0.00 in 81.0 W/m2 CLR
15:10 19.2 °F 1.8 °F 30.78 in NNE 4.0 mph 4.0 mph 46% 0.00 in 134.0 W/m2 CLR
15:14 19.2 °F 1.8 °F 30.78 in ENE 8.1 mph 8.1 mph 46% 0.00 in 95.0 W/m2 CLR
15:19 19.1 °F 2.1 °F 30.79 in NNE 4.6 mph 4.6 mph 47% 0.00 in 160.0 W/m2 CLR
15:20 19.1 °F 2.1 °F 30.79 in North 5.8 mph 5.8 mph 47% 0.00 in 158.0 W/m2 CLR
15:24 19.1 °F 2.1 °F 30.79 in NW 3.5 mph 3.5 mph 47% 0.00 in 141.0 W/m2 CLR
15:26 19.2 °F 2.2 °F 30.78 in NNW 8.1 mph 8.1 mph 47% 0.00 in 123.0 W/m2 CLR
15:31 19.7 °F 2.7 °F 30.78 in NW 4.6 mph 4.6 mph 47% 0.00 in 44.0 W/m2 CLR
15:33 19.8 °F 2.8 °F 30.79 in NW 3.5 mph 3.5 mph 47% 0.00 in 33.0 W/m2 CLR
15:34 19.8 °F 2.3 °F 30.79 in North 5.8 mph 5.8 mph 46% 0.00 in 33.0 W/m2 CLR
15:39 19.5 °F 2.0 °F 30.79 in NNE 3.5 mph 3.5 mph 46% 0.00 in 51.0 W/m2 CLR
15:40 19.5 °F 2.0 °F 30.79 in NNE 3.5 mph 3.5 mph 46% 0.00 in 51.0 W/m2 CLR
15:45 19.3 °F 1.9 °F 30.79 in NNE 3.5 mph 3.5 mph 46% 0.00 in 32.0 W/m2 CLR
15:49 19.3 °F 1.9 °F 30.79 in NNE 3.5 mph 3.5 mph 46% 0.00 in 62.0 W/m2 CLR
15:54 18.9 °F 1.5 °F 30.79 in NNE 3.5 mph 3.5 mph 46% 0.00 in 28.0 W/m2 CLR
15:57 18.8 °F 1.4 °F 30.79 in NE 3.5 mph 3.5 mph 46% 0.00 in 26.0 W/m2 CLR
16:02 18.7 °F 1.8 °F 30.79 in NNE 5.8 mph 5.8 mph 47% 0.00 in 26.0 W/m2 CLR
16:03 18.7 °F 1.3 °F 30.79 in NNE 9.0 mph 9.0 mph 46% 0.00 in 26.0 W/m2 CLR
16:05 18.6 °F 1.2 °F 30.79 in NW 8.1 mph 8.1 mph 46% 0.00 in 28.0 W/m2 CLR
16:10 18.5 °F 1.1 °F 30.79 in NNE 4.0 mph 4.0 mph 46% 0.00 in 30.0 W/m2 CLR
16:14 18.4 °F 1.0 °F 30.79 in NNW 3.5 mph 3.5 mph 46% 0.00 in 23.0 W/m2 CLR
16:16 18.4 °F 1.5 °F 30.79 in NW 7.0 mph 7.0 mph 47% 0.00 in 21.0 W/m2 CLR
16:21 18.3 °F 0.9 °F 30.79 in North 4.0 mph 4.0 mph 46% 0.00 in 18.0 W/m2 CLR
16:26 18.0 °F 0.7 °F 30.79 in NNE 4.6 mph 4.6 mph 46% 0.00 in 16.0 W/m2 CLR
16:31 17.7 °F 0.4 °F 30.79 in NNE 6.9 mph 6.9 mph 46% 0.00 in 12.0 W/m2 CLR
16:33 17.6 °F 0.3 °F 30.79 in NE 5.8 mph 5.8 mph 46% 0.00 in 12.0 W/m2 CLR
16:38 17.5 °F 0.7 °F 30.79 in NE 3.5 mph 3.5 mph 47% 0.00 in 11.0 W/m2 CLR
16:40 17.4 °F 0.6 °F 30.78 in NE 3.5 mph 3.5 mph 47% 0.00 in 9.0 W/m2 CLR
16:45 17.2 °F 0.4 °F 30.79 in NNE 4.6 mph 4.6 mph 47% 0.00 in 7.0 W/m2 CLR
16:48 17.2 °F 0.8 °F 30.79 in NNE 3.5 mph 3.5 mph 48% 0.00 in 5.0 W/m2 CLR
16:51 17.1 °F 0.7 °F 30.79 in NNE 3.5 mph 3.5 mph 48% 0.00 in 5.0 W/m2 CLR
16:56 16.9 °F 0.6 °F 30.79 in NNE 3.5 mph 3.5 mph 48% 0.00 in 0.0 W/m2 CLR
16:57 16.9 °F 0.6 °F 30.79 in NNE 3.5 mph 3.5 mph 48% 0.00 in 0.0 W/m2 CLR
17:02 16.8 °F 0.5 °F 30.79 in NNE 2.3 mph 2.3 mph 48% 0.00 in 0.0 W/m2 CLR
17:05 16.7 °F 0.4 °F 30.79 in NNE 3.5 mph 3.5 mph 48% 0.00 in 0.0 W/m2 CLR
17:07 16.6 °F 0.3 °F 30.79 in NNE 3.5 mph 3.5 mph 48% 0.00 in 0.0 W/m2 CLR
17:12 16.4 °F 0.1 °F 30.79 in NNE 3.5 mph 3.5 mph 48% 0.00 in 0.0 W/m2 CLR
17:13 16.4 °F 0.1 °F 30.79 in NNE 3.5 mph 3.5 mph 48% 0.00 in 0.0 W/m2 CLR
17:18 16.3 °F 0.0 °F 30.79 in NNE 3.0 mph 3.0 mph 48% 0.00 in 0.0 W/m2 CLR
17:19 16.3 °F 0.0 °F 30.79 in NNE 3.5 mph 3.5 mph 48% 0.00 in 0.0 W/m2 CLR
17:21 16.2 °F 0.4 °F 30.79 in NNE 2.3 mph 2.3 mph 49% 0.00 in 0.0 W/m2 CLR
17:24 16.1 °F 0.3 °F 30.79 in NNE 3.5 mph 3.5 mph 49% 0.00 in 0.0 W/m2 CLR
17:29 16.0 °F 0.2 °F 30.79 in NNE 1.2 mph   49% 0.00 in 0.0 W/m2 CLR
17:31 15.9 °F 0.5 °F 30.79 in NNE 2.3 mph 2.3 mph 50% 0.00 in 0.0 W/m2 CLR
17:36 15.8 °F 0.4 °F 30.79 in NNE 2.3 mph 2.3 mph 50% 0.00 in 0.0 W/m2 CLR
17:39 15.7 °F 0.3 °F 30.79 in NNE 3.5 mph 3.5 mph 50% 0.00 in 0.0 W/m2 CLR
17:43 15.5 °F 0.6 °F 30.79 in NW 2.3 mph 2.3 mph 51% 0.00 in 0.0 W/m2 CLR
17:46 15.4 °F 0.5 °F 30.80 in NW 2.3 mph 2.3 mph 51% 0.00 in 0.0 W/m2 CLR
17:48 15.4 °F 0.5 °F 30.80 in NW 2.3 mph 2.3 mph 51% 0.00 in 0.0 W/m2 CLR
17:53 15.2 °F 0.7 °F 30.80 in NNW 2.3 mph 2.3 mph 52% 0.00 in 0.0 W/m2 CLR
17:55 15.2 °F 0.7 °F 30.80 in NNW 3.5 mph 3.5 mph 52% 0.00 in 0.0 W/m2 CLR
17:59 15.1 °F 0.6 °F 30.80 in NNW 2.3 mph 2.3 mph 52% 0.00 in 0.0 W/m2 CLR
18:04 15.0 °F 0.5 °F 30.80 in NNW 2.3 mph 2.3 mph 52% 0.00 in 0.0 W/m2 CLR
18:05 14.9 °F 0.4 °F 30.80 in NNW 1.2 mph 1.2 mph 52% 0.00 in 0.0 W/m2 CLR
18:10 14.8 °F 0.3 °F 30.80 in NNW 2.3 mph 2.3 mph 52% 0.00 in 0.0 W/m2 CLR
18:15 14.6 °F 0.1 °F 30.80 in NNW 1.2 mph 1.2 mph 52% 0.00 in 0.0 W/m2 CLR
18:16 14.6 °F 0.1 °F 30.80 in NNW 2.0 mph 2.0 mph 52% 0.00 in 0.0 W/m2 CLR
18:20 14.5 °F 0.5 °F 30.80 in NNW 2.3 mph 2.3 mph 53% 0.00 in 0.0 W/m2 CLR
18:21 14.5 °F 0.5 °F 30.80 in NNW 3.0 mph 3.0 mph 53% 0.00 in 0.0 W/m2 CLR
18:26 14.3 °F 0.3 °F 30.80 in NW 2.3 mph 2.3 mph 53% 0.00 in 0.0 W/m2 CLR
18:28 14.3 °F 0.3 °F 30.80 in NW 2.3 mph 2.3 mph 53% 0.00 in 0.0 W/m2 CLR
18:29 14.2 °F 0.2 °F 30.81 in NW 3.5 mph 3.5 mph 53% 0.00 in 0.0 W/m2 CLR
18:34 14.1 °F -0.3 °F 30.80 in NW 2.0 mph 2.0 mph 52% 0.00 in 0.0 W/m2 CLR
18:36 14.1 °F 0.1 °F 30.81 in NW 3.5 mph 3.5 mph 53% 0.00 in 0.0 W/m2 CLR
18:41 14.0 °F -0.4 °F 30.81 in NNE 2.3 mph 2.3 mph 52% 0.00 in 0.0 W/m2 CLR
18:46 13.9 °F -0.1 °F 30.81 in NNE 2.3 mph 2.3 mph 53% 0.00 in 0.0 W/m2 CLR
18:47 13.9 °F -0.1 °F 30.81 in NNE 1.2 mph 1.2 mph 53% 0.00 in 0.0 W/m2 CLR
18:48 13.8 °F -0.2 °F 30.81 in NNE 2.3 mph 2.3 mph 53% 0.00 in 0.0 W/m2 CLR
18:53 13.7 °F -0.3 °F 30.81 in NNE 2.3 mph 2.3 mph 53% 0.00 in 0.0 W/m2 CLR
18:54 13.7 °F -0.7 °F 30.81 in NNE 2.3 mph 2.3 mph 52% 0.00 in 0.0 W/m2 CLR
18:59 13.6 °F -0.4 °F 30.81 in NNE 2.3 mph 2.3 mph 53% 0.00 in 0.0 W/m2 CLR
19:03 13.5 °F -0.5 °F 30.81 in NNW 3.5 mph 3.5 mph 53% 0.00 in 0.0 W/m2 CLR
19:08 13.4 °F -0.6 °F 30.81 in NNW 2.3 mph 2.3 mph 53% 0.00 in 0.0 W/m2 CLR
19:09 13.4 °F -0.6 °F 30.81 in NNW 2.3 mph 2.3 mph 53% 0.00 in 0.0 W/m2 CLR
19:14 13.3 °F -0.7 °F 30.81 in NNW 2.3 mph 2.3 mph 53% 0.00 in 0.0 W/m2 CLR
19:19 13.2 °F -0.8 °F 30.81 in North 2.3 mph 2.3 mph 53% 0.00 in 0.0 W/m2 CLR
19:20 13.2 °F -0.8 °F 30.81 in North 2.0 mph 2.0 mph 53% 0.00 in 0.0 W/m2 CLR
19:24 13.1 °F -0.5 °F 30.81 in North 2.3 mph 2.3 mph 54% 0.00 in 0.0 W/m2 CLR
19:28 12.9 °F -0.6 °F 30.81 in North 2.3 mph 2.3 mph 54% 0.00 in 0.0 W/m2 CLR
19:29 12.9 °F -0.6 °F 30.81 in North 2.3 mph 2.3 mph 54% 0.00 in 0.0 W/m2 CLR
19:34 12.8 °F -0.7 °F 30.81 in North 2.3 mph 2.3 mph 54% 0.00 in 0.0 W/m2 CLR
19:38 12.7 °F -0.8 °F 30.81 in North 2.3 mph 2.3 mph 54% 0.00 in 0.0 W/m2 CLR
19:40 12.7 °F -0.8 °F 30.81 in North 3.5 mph 3.5 mph 54% 0.00 in 0.0 W/m2 CLR
19:45 12.5 °F -1.0 °F 30.81 in NNE 3.5 mph 3.5 mph 54% 0.00 in 0.0 W/m2 CLR
19:46 12.5 °F -1.0 °F 30.81 in NNE 3.5 mph 3.5 mph 54% 0.00 in 0.0 W/m2 CLR
19:51 12.4 °F -1.1 °F 30.81 in NNE 3.5 mph 3.5 mph 54% 0.00 in 0.0 W/m2 CLR
19:53 12.4 °F -1.1 °F 30.81 in NNE 2.3 mph 2.3 mph 54% 0.00 in 0.0 W/m2 CLR
19:54 12.4 °F -1.1 °F 30.81 in NNE 2.3 mph 2.3 mph 54% 0.00 in 0.0 W/m2 CLR
19:59 12.3 °F -0.8 °F 30.81 in NNE 6.9 mph 6.9 mph 55% 0.00 in 0.0 W/m2 CLR
20:02 12.3 °F -1.2 °F 30.81 in NNE 2.3 mph 2.3 mph 54% 0.00 in 0.0 W/m2 CLR
20:04 12.2 °F -0.9 °F 30.81 in NNE 3.5 mph 3.5 mph 55% 0.00 in 0.0 W/m2 CLR
20:08 12.2 °F -0.9 °F 30.81 in NNE 4.0 mph 4.0 mph 55% 0.00 in 0.0 W/m2 CLR
20:11 12.1 °F -1.0 °F 30.81 in NNE 1.2 mph 1.2 mph 55% 0.00 in 0.0 W/m2 CLR
20:16 12.0 °F -1.1 °F 30.81 in NNE 3.5 mph 3.5 mph 55% 0.00 in 0.0 W/m2 CLR
20:21 11.9 °F -1.2 °F 30.82 in NNE 4.6 mph 4.6 mph 55% 0.00 in 0.0 W/m2 CLR
20:25 11.9 °F -1.2 °F 30.82 in NNE 3.0 mph 3.0 mph 55% 0.00 in 0.0 W/m2 CLR
20:30 11.8 °F -1.3 °F 30.82 in NNE 8.1 mph 8.1 mph 55% 0.00 in 0.0 W/m2 CLR
20:35 11.8 °F -1.3 °F 30.82 in NNE 3.5 mph 3.5 mph 55% 0.00 in 0.0 W/m2 CLR
20:38 11.7 °F -1.4 °F 30.82 in NNE 2.3 mph 2.3 mph 55% 0.00 in 0.0 W/m2 CLR
20:43 11.6 °F -1.1 °F 30.82 in NNE 4.6 mph 4.6 mph 56% 0.00 in 0.0 W/m2 CLR
20:45 11.5 °F -1.2 °F 30.82 in NNE 3.5 mph 3.5 mph 56% 0.00 in 0.0 W/m2 CLR
20:47 11.5 °F -1.2 °F 30.82 in NNE 3.0 mph 3.0 mph 56% 0.00 in 0.0 W/m2 CLR
20:52 11.4 °F -0.9 °F 30.82 in NNE 3.5 mph 3.5 mph 57% 0.00 in 0.0 W/m2 CLR
20:55 11.3 °F -1.0 °F 30.82 in NNE 4.6 mph 4.6 mph 57% 0.00 in 0.0 W/m2 CLR
21:00 11.2 °F -1.1 °F 30.81 in NNE 5.8 mph 5.8 mph 57% 0.00 in 0.0 W/m2 CLR
21:01 11.2 °F -1.1 °F 30.81 in NNE 3.5 mph 3.5 mph 57% 0.00 in 0.0 W/m2 CLR
21:04 11.1 °F -1.2 °F 30.82 in NNE 3.5 mph 3.5 mph 57% 0.00 in 0.0 W/m2 CLR
21:07 11.1 °F -1.2 °F 30.81 in NNE 3.5 mph 3.5 mph 57% 0.00 in 0.0 W/m2 CLR
21:12 11.0 °F -0.9 °F 30.81 in NE 3.5 mph 3.5 mph 58% 0.00 in 0.0 W/m2 CLR
21:16 11.0 °F -0.9 °F 30.81 in NNE 3.5 mph 3.5 mph 58% 0.00 in 0.0 W/m2 CLR
21:22 10.9 °F -1.0 °F 30.82 in North 4.6 mph 4.6 mph 58% 0.00 in 0.0 W/m2 CLR
21:27 10.8 °F -1.1 °F 30.82 in NNE 3.0 mph 3.0 mph 58% 0.00 in 0.0 W/m2 CLR
21:32 10.7 °F -0.8 °F 30.82 in NNE 3.5 mph 3.5 mph 59% 0.00 in 0.0 W/m2 CLR
21:37 10.6 °F -0.9 °F 30.82 in NNE 3.5 mph 3.5 mph 59% 0.00 in 0.0 W/m2 CLR
21:42 10.5 °F -0.7 °F 30.82 in NNE 2.3 mph 2.3 mph 60% 0.00 in 0.0 W/m2 CLR
21:47 10.4 °F -0.8 °F 30.82 in NNE 3.5 mph 3.5 mph 60% 0.00 in 0.0 W/m2 CLR
21:48 10.4 °F -0.8 °F 30.82 in NNE 2.3 mph 2.3 mph 60% 0.00 in 0.0 W/m2 CLR
21:54 10.3 °F -0.5 °F 30.82 in NNE 3.5 mph 3.5 mph 61% 0.00 in 0.0 W/m2 CLR
21:55 10.3 °F -0.5 °F 30.82 in NNE 2.3 mph 2.3 mph 61% 0.00 in 0.0 W/m2 CLR
22:00 10.2 °F -0.6 °F 30.83 in NNE 2.3 mph 2.3 mph 61% 0.00 in 0.0 W/m2 CLR
22:01 10.2 °F -0.6 °F 30.83 in NNE 2.3 mph 2.3 mph 61% 0.00 in 0.0 W/m2 CLR
22:06 10.1 °F -0.7 °F 30.83 in NNE 1.2 mph 1.2 mph 61% 0.00 in 0.0 W/m2 CLR
22:07 10.0 °F -0.4 °F 30.83 in NNE 1.2 mph 1.2 mph 62% 0.00 in 0.0 W/m2 CLR
22:10 10.0 °F -0.4 °F 30.83 in NNE 1.2 mph 1.2 mph 62% 0.00 in 0.0 W/m2 CLR
22:12 9.9 °F -0.5 °F 30.83 in NNE 1.2 mph 1.2 mph 62% 0.00 in 0.0 W/m2 CLR
22:17 9.8 °F -0.3 °F 30.83 in NNE 2.3 mph 2.3 mph 63% 0.00 in 0.0 W/m2 CLR
22:19 9.8 °F -0.3 °F 30.82 in NNE 2.3 mph 2.3 mph 63% 0.00 in 0.0 W/m2 CLR
22:21 9.8 °F -0.3 °F 30.82 in NNE 1.2 mph 1.2 mph 63% 0.00 in 0.0 W/m2 CLR
22:25 9.7 °F -0.4 °F 30.82 in NNE 1.2 mph 1.2 mph 63% 0.00 in 0.0 W/m2 CLR
22:28 9.6 °F -0.5 °F 30.82 in NNE 3.5 mph 3.5 mph 63% 0.00 in 0.0 W/m2 CLR
22:30 9.6 °F -0.5 °F 30.82 in NNE 3.5 mph 3.5 mph 63% 0.00 in 0.0 W/m2 CLR
22:35 9.6 °F -0.1 °F 30.82 in NNE 2.3 mph 2.3 mph 64% 0.00 in 0.0 W/m2 CLR
22:37 9.5 °F -0.2 °F 30.82 in NNE 2.3 mph 2.3 mph 64% 0.00 in 0.0 W/m2 CLR
22:42 9.4 °F -0.3 °F 30.82 in NNE 1.2 mph   64% 0.00 in 0.0 W/m2 CLR
22:44 9.4 °F -0.3 °F 30.82 in NNE 1.2 mph   64% 0.00 in 0.0 W/m2 CLR
22:48 9.3 °F -0.1 °F 30.82 in NNE 3.5 mph 3.5 mph 65% 0.00 in 0.0 W/m2 CLR
22:51 9.3 °F -0.1 °F 30.82 in NNE 2.3 mph 2.3 mph 65% 0.00 in 0.0 W/m2 CLR
22:53 9.2 °F -0.2 °F 30.82 in NNE 1.2 mph 1.2 mph 65% 0.00 in 0.0 W/m2 CLR
22:58 9.2 °F 0.1 °F 30.82 in NNE 3.5 mph 3.5 mph 66% 0.00 in 0.0 W/m2 CLR
23:01 9.1 °F 0.0 °F 30.81 in NNE 2.3 mph 2.3 mph 66% 0.00 in 0.0 W/m2 CLR
23:05 9.1 °F 0.0 °F 30.82 in NNE 2.3 mph 2.3 mph 66% 0.00 in 0.0 W/m2 CLR
23:06 9.1 °F -0.3 °F 30.81 in NNE 2.3 mph 2.3 mph 65% 0.00 in 0.0 W/m2 CLR
23:10 9.1 °F 0.0 °F 30.81 in NNE 2.3 mph 2.3 mph 66% 0.00 in 0.0 W/m2 CLR
23:14 9.1 °F 0.0 °F 30.81 in NE 3.5 mph 3.5 mph 66% 0.00 in 0.0 W/m2 CLR
23:17 9.1 °F -0.3 °F 30.81 in ENE 3.5 mph 3.5 mph 65% 0.00 in 0.0 W/m2 CLR
23:20 9.1 °F -0.3 °F 30.81 in NE 3.0 mph 5.0 mph 65% 0.00 in 0.0 W/m2 CLR
23:23 9.1 °F -0.6 °F 30.80 in NE 8.1 mph 8.1 mph 64% 0.00 in 0.0 W/m2 CLR
23:25 9.1 °F -0.6 °F 30.80 in NNE 4.6 mph 4.6 mph 64% 0.00 in 0.0 W/m2 CLR
23:30 9.1 °F -1.0 °F 30.80 in ENE 5.8 mph 5.8 mph 63% 0.00 in 0.0 W/m2 CLR
23:31 9.1 °F -1.0 °F 30.80 in ENE 8.1 mph 8.1 mph 63% 0.00 in 0.0 W/m2 CLR
23:32 9.1 °F -1.0 °F 30.80 in ENE 4.6 mph 4.6 mph 63% 0.00 in 0.0 W/m2 CLR
23:37 9.0 °F -0.7 °F 30.80 in ENE 4.0 mph 4.0 mph 64% 0.00 in 0.0 W/m2 CLR
23:41 8.9 °F -0.8 °F 30.80 in NNE 5.0 mph 5.0 mph 64% 0.00 in 0.0 W/m2 CLR
23:43 8.9 °F -0.8 °F 30.80 in ENE 5.0 mph 5.0 mph 64% 0.00 in 0.0 W/m2 CLR
23:48 8.8 °F -0.9 °F 30.79 in ENE 4.0 mph 4.0 mph 64% 0.00 in 0.0 W/m2 CLR
23:49 8.7 °F -1.0 °F 30.79 in ENE 3.5 mph 3.5 mph 64% 0.00 in 0.0 W/m2 CLR
23:54 8.6 °F -0.8 °F 30.79 in ENE 3.5 mph 3.5 mph 65% 0.00 in 0.0 W/m2 CLR
23:56 8.5 °F -0.9 °F 30.79 in NE 5.0 mph 5.0 mph 65% 0.00 in 0.0 W/m2 CLR
Bruceton, TN. NWS Weather Forecast
Compliments of:  Weather Underground - 6 mb

Interesting Weather Facts
WEATHER STATION
A weather station is a facility with instruments and equipment to make weather observations by monitoring atmospheric conditions to study the weather. This weather station has a thermometer for measuring temperature; barometer for measuring changes in air pressure; hygrometer for measuring humidity; anemometer for measuring wind speed and wind direction; and rain gauge for measuring precipitation.